createdAt,value
2019-05-07T00:02:32.199Z,9.40
2019-05-07T00:05:22.841Z,9.30
2019-05-07T00:08:12.244Z,9.55
2019-05-07T00:11:02.550Z,11.83
2019-05-07T00:13:52.233Z,11.65
2019-05-07T00:20:10.249Z,10.40
2019-05-07T00:22:59.068Z,12.07
2019-05-07T00:25:47.925Z,13.18
2019-05-07T00:28:36.757Z,11.57
2019-05-07T00:31:25.587Z,11.50
2019-05-07T00:40:22.561Z,12.30
2019-05-07T00:52:16.192Z,10.28
2019-05-07T00:55:25.904Z,11.43
2019-05-07T00:58:14.750Z,10.78
2019-05-07T01:04:13.007Z,12.20
2019-05-07T01:07:02.763Z,11.93
2019-05-07T01:09:52.598Z,11.65
2019-05-07T01:12:42.949Z,12.53
2019-05-07T01:15:34.462Z,11.15
2019-05-07T01:18:23.352Z,11.28
2019-05-07T01:21:13.283Z,11.70
2019-05-07T01:24:03.546Z,9.40
2019-05-07T01:26:53.056Z,10.90
2019-05-07T01:29:43.119Z,12.45
2019-05-07T01:32:53.140Z,12.85
2019-05-07T01:36:02.420Z,12.30
2019-05-07T01:38:52.262Z,12.93
2019-05-07T01:41:34.398Z,12.95
2019-05-07T01:44:23.255Z,11.18
2019-05-07T01:47:13.037Z,12.47
2019-05-07T01:50:03.159Z,11.08
2019-05-07T01:52:53.272Z,12.80
2019-05-07T01:55:42.802Z,10.78
2019-05-07T01:58:33.302Z,11.90
2019-05-07T02:01:23.206Z,10.45
2019-05-07T02:04:32.692Z,12.03
2019-05-07T02:07:42.777Z,12.45
2019-05-07T02:13:31.076Z,11.40
2019-05-07T02:16:21.756Z,11.65
2019-05-07T02:19:12.513Z,11.95
2019-05-07T02:22:02.839Z,10.78
2019-05-07T02:24:52.403Z,11.88
2019-05-07T02:27:42.320Z,12.05
2019-05-07T02:30:34.548Z,11.75
2019-05-07T02:33:23.032Z,12.58
2019-05-07T02:36:14.234Z,12.20
2019-05-07T02:39:03.765Z,13.60
2019-05-07T02:41:45.714Z,12.63
2019-05-07T02:53:44.949Z,11.30
2019-05-07T02:56:33.777Z,12.50
2019-05-07T02:59:04.216Z,12.55
2019-05-07T03:01:54.050Z,12.55
2019-05-07T03:04:43.524Z,13.38
2019-05-07T03:07:33.857Z,12.13
2019-05-07T03:10:24.252Z,13.15
2019-05-07T03:13:14.600Z,11.88
2019-05-07T03:16:03.918Z,11.20
2019-05-07T03:18:54.134Z,13.83
2019-05-07T03:22:03.906Z,10.98
2019-05-07T03:25:13.556Z,13.18
2019-05-07T03:28:04.379Z,12.13
2019-05-07T03:31:16.611Z,12.37
2019-05-07T03:34:25.765Z,12.33
2019-05-07T03:40:23.093Z,13.05
2019-05-07T03:43:13.977Z,12.45
2019-05-07T03:46:03.581Z,13.28
2019-05-07T03:48:53.230Z,11.53
2019-05-07T03:51:44.155Z,12.05
2019-05-07T03:54:34.394Z,12.88
2019-05-07T03:57:24.516Z,12.18
2019-05-07T04:03:28.654Z,15.48
2019-05-07T04:06:17.491Z,13.83
2019-05-07T04:09:06.420Z,14.28
2019-05-07T04:11:35.938Z,13.72
2019-05-07T04:14:24.824Z,14.03
2019-05-07T04:17:21.851Z,13.65
2019-05-07T04:23:34.142Z,12.25
2019-05-07T04:26:42.984Z,12.75
2019-05-07T04:29:35.091Z,13.32
2019-05-07T04:35:38.083Z,13.85
2019-05-07T04:38:26.903Z,13.70
2019-05-07T04:41:15.773Z,16.20
2019-05-07T04:47:34.712Z,13.93
2019-05-07T04:50:49.995Z,13.22
2019-05-07T04:53:38.808Z,13.45
2019-05-07T04:56:27.657Z,14.73
2019-05-07T04:59:16.491Z,13.32
2019-05-07T05:02:24.341Z,13.85
2019-05-07T05:08:23.634Z,15.00
2019-05-07T05:11:13.547Z,13.98
2019-05-07T05:14:03.307Z,15.80
2019-05-07T05:16:52.954Z,15.32
2019-05-07T05:19:43.809Z,15.13
2019-05-07T05:22:53.183Z,13.98
2019-05-07T05:28:42.091Z,16.12
2019-05-07T05:31:33.092Z,14.07
2019-05-07T05:34:22.753Z,14.95
2019-05-07T05:37:12.034Z,15.20
2019-05-07T05:40:08.586Z,15.25
2019-05-07T05:43:04.310Z,15.15
2019-05-07T05:48:52.887Z,16.12
2019-05-07T05:52:02.025Z,13.72
2019-05-07T05:58:19.830Z,14.78
2019-05-07T06:01:27.685Z,16.20
2019-05-07T06:04:35.563Z,15.93
2019-05-07T06:07:43.427Z,14.05
2019-05-07T06:13:47.301Z,15.63
2019-05-07T06:16:55.228Z,15.33
2019-05-07T06:28:39.108Z,13.70
2019-05-07T06:31:27.946Z,14.27
2019-05-07T06:34:16.775Z,15.57
2019-05-07T06:37:05.614Z,13.60
2019-05-07T06:39:54.214Z,12.70
2019-05-07T06:42:42.772Z,11.97
2019-05-07T06:45:51.854Z,10.80
2019-05-07T06:48:43.567Z,11.97
2019-05-07T06:51:32.845Z,12.70
2019-05-07T06:54:22.717Z,11.87
2019-05-07T06:57:13.146Z,10.57
2019-05-07T07:03:35.749Z,9.90
2019-05-07T07:09:53.018Z,10.03
2019-05-07T07:12:42.627Z,10.90
2019-05-07T07:15:32.667Z,10.87
2019-05-07T07:18:23.107Z,9.33
2019-05-07T07:21:12.432Z,9.37
2019-05-07T07:24:03.113Z,8.87
2019-05-07T07:26:53.156Z,8.57
2019-05-07T07:30:02.309Z,9.57
2019-05-07T07:35:27.713Z,10.60
2019-05-07T07:38:35.570Z,10.93
2019-05-07T07:41:43.459Z,13.30
2019-05-07T07:44:25.758Z,10.50
2019-05-07T07:47:14.577Z,10.73
2019-05-07T07:53:18.425Z,9.70
2019-05-07T07:56:26.308Z,10.63
2019-05-07T07:59:34.255Z,10.97
2019-05-07T08:05:18.804Z,11.00
2019-05-07T08:08:07.664Z,12.90
2019-05-07T08:10:56.659Z,11.93
2019-05-07T08:13:45.623Z,11.70
2019-05-07T08:16:34.615Z,10.90
2019-05-07T08:19:25.145Z,12.40
2019-05-07T08:22:14.116Z,12.43
2019-05-07T08:28:02.984Z,11.07
2019-05-07T08:31:12.044Z,11.20
2019-05-07T08:37:01.852Z,11.80
2019-05-07T08:39:52.105Z,12.10
2019-05-07T08:42:42.244Z,10.80
2019-05-07T08:45:52.358Z,11.27
2019-05-07T08:51:36.440Z,11.90
2019-05-07T08:54:25.335Z,12.03
2019-05-07T08:57:14.252Z,12.83
2019-05-07T09:12:29.317Z,13.00
2019-05-07T09:15:18.239Z,12.23
2019-05-07T09:18:07.082Z,10.30
2019-05-07T09:20:55.975Z,12.20
2019-05-07T09:23:44.831Z,13.10
2019-05-07T09:30:22.027Z,11.60
2019-05-07T09:33:32.014Z,10.43
2019-05-07T09:39:17.394Z,11.00
2019-05-07T09:42:06.388Z,10.90
2019-05-07T09:44:48.748Z,10.50
2019-05-07T09:47:37.580Z,9.90
2019-05-07T09:50:26.499Z,10.63
2019-05-07T09:53:15.413Z,10.83
2019-05-07T09:59:19.482Z,10.93
2019-05-07T10:02:08.395Z,10.20
2019-05-07T10:04:57.234Z,10.87
2019-05-07T10:07:46.209Z,11.40
2019-05-07T10:10:35.055Z,13.03
2019-05-07T10:13:23.678Z,10.77
2019-05-07T10:19:12.473Z,10.63
2019-05-07T10:22:02.331Z,10.63
2019-05-07T10:24:52.314Z,11.60
2019-05-07T10:27:41.881Z,11.07
2019-05-07T10:30:32.247Z,11.43
2019-05-07T10:33:22.970Z,9.67
2019-05-07T10:36:13.287Z,10.00
2019-05-07T10:39:02.562Z,9.00
2019-05-07T10:41:52.827Z,9.63
2019-05-07T10:44:36.196Z,9.57
2019-05-07T10:47:44.118Z,9.97
2019-05-07T10:53:32.747Z,10.00
2019-05-07T10:56:22.261Z,10.30
2019-05-07T10:59:12.384Z,9.10
2019-05-07T11:02:21.937Z,9.83
2019-05-07T11:05:12.758Z,9.00
2019-05-07T11:08:02.181Z,10.10
2019-05-07T11:10:52.213Z,10.17
2019-05-07T11:13:42.571Z,10.23
2019-05-07T11:19:32.464Z,9.00
2019-05-07T11:22:22.172Z,10.20
2019-05-07T11:25:12.390Z,10.47
2019-05-07T11:28:02.868Z,12.10
2019-05-07T11:30:51.860Z,9.00
2019-05-07T11:33:41.686Z,10.87
2019-05-07T11:36:32.028Z,10.30
2019-05-07T11:39:22.674Z,9.73
2019-05-07T11:42:31.543Z,9.97
2019-05-07T11:45:15.444Z,9.30
2019-05-07T11:48:04.472Z,9.37
2019-05-07T11:51:03.103Z,9.67
2019-05-07T11:56:55.544Z,9.27
2019-05-07T11:59:43.590Z,9.23
2019-05-07T12:02:32.483Z,8.60
2019-05-07T12:05:22.686Z,9.97
2019-05-07T12:08:13.255Z,9.47
2019-05-07T12:11:02.638Z,8.07
2019-05-07T12:13:52.367Z,8.80
2019-05-07T12:16:42.655Z,9.83
2019-05-07T12:19:33.174Z,8.40
2019-05-07T12:22:42.468Z,8.83
2019-05-07T12:25:32.088Z,9.17
2019-05-07T12:28:22.644Z,8.80
2019-05-07T12:31:33.502Z,8.90
2019-05-07T12:34:42.332Z,8.90
2019-05-07T12:37:32.128Z,8.37
2019-05-07T12:40:23.023Z,7.73
2019-05-07T12:43:11.915Z,8.00
2019-05-07T12:45:53.488Z,8.40
2019-05-07T12:48:42.495Z,7.87
2019-05-07T12:54:32.977Z,8.50
2019-05-07T12:57:21.962Z,8.57
2019-05-07T13:03:26.916Z,8.87
2019-05-07T13:06:15.797Z,8.73
2019-05-07T13:09:25.525Z,7.43
2019-05-07T13:12:14.360Z,7.30
2019-05-07T13:15:03.282Z,10.40
2019-05-07T13:17:52.136Z,9.03
2019-05-07T13:20:41.168Z,8.70
2019-05-07T13:23:31.808Z,8.30
2019-05-07T13:26:24.282Z,8.10
2019-05-07T13:29:12.820Z,9.30
2019-05-07T13:35:17.310Z,8.30
2019-05-07T13:38:06.006Z,8.90
2019-05-07T13:44:23.420Z,9.20
2019-05-07T13:47:24.709Z,10.10
2019-05-07T13:53:28.556Z,8.00
2019-05-07T13:56:17.521Z,8.60
2019-05-07T13:59:06.462Z,8.30
2019-05-07T14:02:15.663Z,8.90
2019-05-07T14:05:25.904Z,7.00
2019-05-07T14:08:14.842Z,8.73
2019-05-07T14:11:03.798Z,9.27
2019-05-07T14:13:52.724Z,9.00
2019-05-07T14:16:44.731Z,9.20
2019-05-07T14:19:32.747Z,7.83
2019-05-07T14:22:22.909Z,7.20
2019-05-07T14:25:32.661Z,7.60
2019-05-07T14:28:23.586Z,6.87
2019-05-07T14:31:12.374Z,6.07
2019-05-07T14:34:22.489Z,6.60
2019-05-07T14:40:22.299Z,6.73
2019-05-07T14:43:32.325Z,6.23
2019-05-07T14:46:13.652Z,5.57
2019-05-07T14:49:02.832Z,5.67
2019-05-07T14:51:54.095Z,5.80
2019-05-07T14:54:43.746Z,6.77
2019-05-07T14:57:32.686Z,6.60
2019-05-07T15:00:22.606Z,5.70
2019-05-07T15:03:12.587Z,5.17
2019-05-07T15:06:03.238Z,4.20
2019-05-07T15:08:52.292Z,4.60
2019-05-07T15:11:42.541Z,4.90
2019-05-07T15:14:31.967Z,4.80
2019-05-07T15:20:49.211Z,5.63
2019-05-07T15:29:44.003Z,5.47
2019-05-07T15:32:32.921Z,5.10
2019-05-07T15:35:21.750Z,5.30
2019-05-07T15:38:11.658Z,5.70
2019-05-07T15:41:02.208Z,5.47
2019-05-07T15:43:52.225Z,5.43
2019-05-07T15:46:35.746Z,4.20
2019-05-07T15:49:24.621Z,4.33
2019-05-07T15:52:32.771Z,5.53
2019-05-07T15:55:22.562Z,6.07
2019-05-07T15:58:12.203Z,5.33
2019-05-07T16:01:02.165Z,6.07
2019-05-07T16:03:54.855Z,6.13
2019-05-07T16:06:42.664Z,6.10
2019-05-07T16:12:28.982Z,6.50
2019-05-07T16:15:17.882Z,6.00
2019-05-07T16:18:25.763Z,4.90
2019-05-07T16:21:14.586Z,6.60
2019-05-07T16:24:04.056Z,5.93
2019-05-07T16:26:54.123Z,7.30
2019-05-07T16:29:42.990Z,7.03
2019-05-07T16:32:32.848Z,5.97
2019-05-07T16:35:22.846Z,6.67
2019-05-07T16:38:15.611Z,5.70
2019-05-07T16:41:03.669Z,5.93
2019-05-07T16:43:52.534Z,4.73
2019-05-07T16:46:34.528Z,4.77
2019-05-07T16:49:23.374Z,5.77
2019-05-07T16:52:12.220Z,5.33
2019-05-07T16:55:03.058Z,4.53
2019-05-07T16:57:51.582Z,3.70
2019-05-07T17:01:00.160Z,4.37
2019-05-07T17:04:09.068Z,3.90
2019-05-07T17:10:28.205Z,3.37
2019-05-07T17:13:17.059Z,3.30
2019-05-07T17:16:06.064Z,4.07
2019-05-07T17:18:54.957Z,3.20
2019-05-07T17:21:43.823Z,3.90
2019-05-07T17:24:33.016Z,3.50
2019-05-07T17:27:23.286Z,2.83
2019-05-07T17:30:12.184Z,3.70
2019-05-07T17:33:01.923Z,3.13
2019-05-07T17:35:51.914Z,4.03
2019-05-07T17:38:42.855Z,4.07
2019-05-07T17:41:33.165Z,3.63
2019-05-07T17:44:23.504Z,3.77
2019-05-07T17:47:05.092Z,3.70
2019-05-07T17:49:53.930Z,3.73
2019-05-07T17:52:42.796Z,3.80
2019-05-07T17:55:33.148Z,4.50
2019-05-07T17:58:22.229Z,3.93
2019-05-07T18:01:11.156Z,3.50
2019-05-07T18:04:00.027Z,4.00
2019-05-07T18:06:48.863Z,3.57
2019-05-07T18:09:37.863Z,3.83
2019-05-07T18:12:26.715Z,4.30
2019-05-07T18:15:15.715Z,3.53
2019-05-07T18:21:14.077Z,3.40
2019-05-07T18:24:13.048Z,3.83
2019-05-07T18:26:53.582Z,3.70
2019-05-07T18:29:42.797Z,3.10
2019-05-07T18:35:32.902Z,3.50
2019-05-07T18:38:22.355Z,2.63
2019-05-07T18:41:12.495Z,3.13
2019-05-07T18:44:09.998Z,3.50
2019-05-07T18:46:32.833Z,3.30
2019-05-07T18:49:21.721Z,3.57
2019-05-07T18:52:12.231Z,2.60
2019-05-07T18:55:02.781Z,3.30
2019-05-07T18:57:51.967Z,3.70
2019-05-07T19:03:36.882Z,5.37
2019-05-07T19:06:25.788Z,4.77
2019-05-07T19:09:14.754Z,3.57
2019-05-07T19:15:13.229Z,4.33
2019-05-07T19:18:02.794Z,3.27
2019-05-07T19:20:53.031Z,3.63
2019-05-07T19:23:43.345Z,3.27
2019-05-07T19:26:32.224Z,3.57
2019-05-07T19:29:23.354Z,3.30
2019-05-07T19:38:22.484Z,3.47
2019-05-07T19:41:12.344Z,3.87
2019-05-07T19:44:02.125Z,4.30
2019-05-07T19:46:43.670Z,3.40
2019-05-07T19:49:32.666Z,3.93
2019-05-07T19:52:23.128Z,3.50
2019-05-07T19:55:12.337Z,3.97
2019-05-07T19:58:20.260Z,3.50
2019-05-07T20:00:49.853Z,3.80
2019-05-07T20:03:38.773Z,4.08
2019-05-07T20:06:08.502Z,4.50
2019-05-07T20:09:09.053Z,4.20
2019-05-07T20:11:59.006Z,3.60
2019-05-07T20:14:47.872Z,4.70
2019-05-07T20:17:36.774Z,4.50
2019-05-07T20:20:25.629Z,4.12
2019-05-07T20:23:14.531Z,5.05
2019-05-07T20:26:04.024Z,5.47
2019-05-07T20:28:52.877Z,4.53
2019-05-07T20:31:42.437Z,4.95
2019-05-07T20:34:33.289Z,5.00
2019-05-07T20:37:23.026Z,4.72
2019-05-07T20:40:12.328Z,4.33
2019-05-07T20:43:02.532Z,4.30
2019-05-07T20:45:51.901Z,4.20
2019-05-07T20:48:34.855Z,4.00
2019-05-07T20:51:23.732Z,5.03
2019-05-07T20:57:42.752Z,3.87
2019-05-07T21:00:32.606Z,4.55
2019-05-07T21:03:23.758Z,3.62
2019-05-07T21:06:12.819Z,4.00
2019-05-07T21:09:01.648Z,4.55
2019-05-07T21:11:50.487Z,4.50
2019-05-07T21:14:41.704Z,4.90
2019-05-07T21:17:11.976Z,5.00
2019-05-07T21:20:01.280Z,4.70
2019-05-07T21:22:51.879Z,4.17
2019-05-07T21:25:22.672Z,4.30
2019-05-07T21:28:12.339Z,4.70
2019-05-07T21:31:02.901Z,4.42
2019-05-07T21:33:53.098Z,4.08
2019-05-07T21:36:43.171Z,4.28
2019-05-07T21:39:33.137Z,4.15
2019-05-07T21:42:23.170Z,4.12
2019-05-07T21:45:12.036Z,4.00
2019-05-07T21:47:54.476Z,4.20
2019-05-07T21:50:43.745Z,3.55
2019-05-07T21:53:53.698Z,4.05
2019-05-07T21:57:02.057Z,4.08
2019-05-07T22:05:57.359Z,4.72
2019-05-07T22:08:46.215Z,3.40
2019-05-07T22:11:35.092Z,4.00
2019-05-07T22:14:23.960Z,3.90
2019-05-07T22:17:12.914Z,4.30
2019-05-07T22:20:03.022Z,3.70
2019-05-07T22:22:52.324Z,4.72
2019-05-07T22:25:42.154Z,4.20
2019-05-07T22:32:02.559Z,4.35
2019-05-07T22:37:51.969Z,4.05
2019-05-07T22:40:43.308Z,3.65
2019-05-07T22:43:31.955Z,3.52
2019-05-07T22:46:22.473Z,3.77
2019-05-07T22:49:06.249Z,4.10
2019-05-07T22:51:55.124Z,3.85
2019-05-07T22:54:43.918Z,3.10
2019-05-07T22:57:52.589Z,3.55
2019-05-07T23:01:02.488Z,3.52
2019-05-07T23:03:53.971Z,2.90
2019-05-07T23:06:43.686Z,4.15
2019-05-07T23:09:33.137Z,4.10
2019-05-07T23:12:02.772Z,3.85
2019-05-07T23:14:53.591Z,3.85
2019-05-07T23:17:42.365Z,3.98
2019-05-07T23:20:32.014Z,4.10
2019-05-07T23:23:21.911Z,3.60
2019-05-07T23:26:12.215Z,4.05
2019-05-07T23:29:02.423Z,3.98
2019-05-07T23:31:53.000Z,4.40
2019-05-07T23:34:42.474Z,3.85
2019-05-07T23:37:33.116Z,3.30
2019-05-07T23:40:41.875Z,3.67
2019-05-07T23:43:31.790Z,4.50
2019-05-07T23:46:22.310Z,3.10
2019-05-07T23:49:03.925Z,3.62
2019-05-07T23:51:53.187Z,3.70
2019-05-07T23:54:43.310Z,4.22
2019-05-07T23:57:32.650Z,3.30
